Latest Weather Observations for Gudgenby

IDN60801

Issued at 3:12 pm EST Thursday 28 May 2020 (issued every 10 minutes, with the page automatically refreshed every 10 minutes)

About weather observations | Map of weather stations | Latest weather observations for NSW | Other Formats
Station Details ID: 250072 Name: GUDGENBY (PCS) Lat: -35.73 Lon: 148.98 Height: 1035.0 m

Portable automatic weather stations (PAWS) are operated by other organisations, such as Fire and Emergency Services, and are included here by agreement. Portable stations may be deployed to a location for a short period and their location may be subject to change without notice. Wind observations from these stations are provided from heights of either three (3) or ten (10) metres above ground level (AGL).

Data from the previous 72 hours. | See also: Recent months for locations in New South Wales
Date/Time
EST
Temp
°C
App
Temp
°C
Dew
Point
°C
Rel
Hum
%
Delta-T
°C
Wind Press
QNH
hPa
Press
MSL
hPa
Rain since
9am
mm
Dir  Spd
km/h
Gust
km/h
Spd
kts
Gust
kts
28/03:00pm 12.2 7.5 3.3 54 4.2 WSW 17 19 9 10 - - 0.0
28/02:50pm 13.4 9.9 3.5 51 4.7 WSW 11 15 6 8 - - 0.0
28/02:40pm 13.3 10.1 3.3 50 4.7 WSW 9 11 5 6 - - 0.0
28/02:30pm 12.9 9.8 3.5 53 4.5 SSW 9 13 5 7 - - 0.0
28/02:20pm 12.8 8.3 2.2 48 4.9 WSW 15 17 8 9 - - 0.0
28/02:10pm 12.2 7.9 3.3 54 4.2 W 15 17 8 9 - - 0.0
28/02:00pm 13.0 8.8 3.6 53 4.5 SSW 15 19 8 10 - - 0.0
28/01:50pm 13.3 8.7 3.5 51 4.7 S 17 19 9 10 - - 0.0
28/01:40pm 13.0 9.7 4.3 55 4.2 SSW 11 15 6 8 - - 0.0
28/01:30pm 12.4 8.8 3.0 52 4.4 SW 11 13 6 7 - - 0.0
28/01:20pm 12.7 9.2 3.7 54 4.3 SW 11 13 6 7 - - 0.0
28/01:10pm 13.7 10.5 3.1 48 5.0 WSW 9 15 5 8 - - 0.0
28/01:00pm 14.3 11.8 4.8 53 4.7 WNW 7 9 4 5 - - 0.0
28/12:50pm 14.3 11.7 3.1 47 5.3 W 6 9 3 5 - - 0.0
28/12:40pm 14.1 11.5 3.1 47 5.2 NNE 6 9 3 5 - - 0.0
28/12:30pm 13.8 11.2 3.3 49 5.0 N 6 9 3 5 - - 0.0
28/12:20pm 14.2 12.1 3.7 49 5.1 NE 4 6 2 3 - - 0.0
28/12:10pm 13.9 11.4 3.7 50 4.9 NNW 6 9 3 5 - - 0.0
28/12:00pm 13.9 12.0 4.8 54 4.5 NNW 4 7 2 4 - - 0.0
28/11:50am 13.4 10.9 3.8 52 4.6 NNW 6 9 3 5 - - 0.0
28/11:40am 13.6 11.2 4.5 54 4.4 N 6 7 3 4 - - 0.0
28/11:30am 13.1 10.8 3.0 50 4.8 W 4 7 2 4 - - 0.0
28/11:20am 12.3 9.5 3.3 54 4.2 SSE 7 13 4 7 - - 0.0
28/11:10am 11.9 9.1 3.0 54 4.2 SSE 7 11 4 6 - - 0.0
28/11:00am 11.7 8.3 4.1 59 3.6 S 11 17 6 9 - - 0.0
28/10:50am 11.4 7.6 3.9 60 3.6 S 13 15 7 8 - - 0.0
28/10:40am 11.1 7.1 3.1 58 3.7 S 13 17 7 9 - - 0.0
28/10:30am 10.9 6.7 3.8 61 3.3 S 15 17 8 9 - - 0.0
28/10:20am 11.3 8.4 4.5 63 3.3 S 9 17 5 9 - - 0.0
28/10:10am 11.0 8.0 4.1 62 3.3 S 9 11 5 6 - - 0.0
28/10:00am 10.8 7.5 4.5 65 3.0 S 11 13 6 7 - - 0.0
28/09:50am 11.2 9.3 4.9 65 3.0 SW 4 6 2 3 - - 0.0
28/09:40am 10.2 8.0 5.4 72 2.3 N 6 6 3 3 - - 0.0
28/09:30am 9.8 7.7 5.6 75 2.0 N 6 6 3 3 - - 0.0
28/09:20am 10.5 8.8 6.0 74 2.2 ESE 4 6 2 3 - - 0.0
28/09:10am 10.1 8.2 4.9 70 2.5 S 4 6 2 3 - - 0.0
28/09:00am 8.9 7.4 4.8 75 1.9 NNW 2 4 1 2 - - 0.0
28/08:50am 7.0 4.5 4.0 81 1.4 NNW 6 6 3 3 - - 0.0
28/08:40am 5.6 3.4 3.6 87 0.9 NNW 4 6 2 3 - - 0.0
28/08:30am 7.1 5.5 4.4 83 1.2 NW 2 4 1 2 - - 0.0
28/08:20am 8.4 6.8 4.7 77 1.7 N 2 2 1 1 - - 0.0
28/08:10am 7.2 5.2 4.2 81 1.4 NNE 4 4 2 2 - - 0.0
28/08:00am 6.6 4.1 3.9 83 1.2 N 6 7 3 4 - - 0.0
28/07:50am 5.4 2.8 3.3 86 0.9 N 6 7 3 4 - - 0.0
28/07:40am 5.4 3.1 2.8 83 1.1 NNE 4 6 2 3 - - 0.0
28/07:30am 5.5 3.7 3.2 85 1.0 NNE 2 6 1 3 - - 0.0
28/07:20am 4.4 2.2 3.2 92 0.5 NNE 4 6 2 3 - - 0.0
28/07:10am 3.8 1.1 2.9 94 0.4 N 6 7 3 4 - - 0.0
28/07:00am 3.9 1.1 2.3 89 0.7 N 6 7 3 4 - - 0.0
28/06:50am 4.4 2.2 3.6 95 0.4 SE 4 7 2 4 - - 0.0
28/06:40am 3.9 1.7 3.2 95 0.3 N 4 7 2 4 - - 0.0
28/06:30am 3.2 0.8 2.3 94 0.4 NNW 4 6 2 3 - - 0.0
28/06:20am 4.0 1.4 3.3 95 0.3 W 6 9 3 5 - - 0.0
28/06:10am 3.3 0.5 2.1 92 0.5 WSW 6 11 3 6 - - 0.0
28/06:00am 4.0 1.7 2.8 92 0.5 N 4 4 2 2 - - 0.0
28/05:50am 4.2 2.0 3.4 94 0.4 W 4 7 2 4 - - 0.0
28/05:40am 3.6 1.3 2.9 95 0.3 SE 4 7 2 4 - - 0.0
28/05:30am 3.7 1.0 2.9 94 0.3 SE 6 11 3 6 - - 0.0
28/05:20am 3.4 1.1 2.8 96 0.3 NNE 4 7 2 4 - - 0.0
28/05:10am 3.0 0.6 2.3 95 0.3 E 4 7 2 4 - - 0.0
28/05:00am 3.4 0.5 2.6 94 0.3 W 7 9 4 5 - - 0.0
28/04:50am 3.5 0.5 2.2 91 0.6 NW 7 9 4 5 - - 0.0
28/04:40am 4.5 1.9 3.4 93 0.5 N 6 11 3 6 - - 0.0
28/04:30am 3.8 1.1 2.4 91 0.6 NNE 6 7 3 4 - - 0.0
28/04:20am 4.5 1.8 3.5 93 0.4 E 7 7 4 4 - - 0.0
28/04:10am 3.9 1.3 3.3 96 0.3 - 6 7 3 4 - - 0.0
28/04:00am 3.1 0.3 2.3 94 0.3 SSE 6 7 3 4 - - 0.0
28/03:50am 3.6 1.3 2.5 92 0.5 SE 4 7 2 4 - - 0.0
28/03:40am 4.6 2.1 3.5 93 0.5 W 6 7 3 4 - - 0.0
28/03:30am 4.0 1.7 3.0 93 0.4 N 4 6 2 3 - - 0.0
28/03:20am 4.0 1.8 3.1 94 0.4 N 4 7 2 4 - - 0.0
28/03:10am 3.5 0.8 2.8 95 0.3 SE 6 9 3 5 - - 0.0
28/03:00am 3.6 0.9 2.5 92 0.5 S 6 7 3 4 - - 0.0
28/02:50am 4.4 2.2 3.3 93 0.5 WNW 4 6 2 3 - - 0.0
28/02:40am 4.0 1.4 3.1 94 0.4 NW 6 6 3 3 - - 0.0
28/02:30am 3.9 1.0 2.8 92 0.5 NW 7 9 4 5 - - 0.0
28/02:20am 4.0 1.8 3.2 94 0.3 NW 4 7 2 4 - - 0.0
28/02:10am 3.8 1.5 2.9 94 0.4 W 4 4 2 2 - - 0.0
28/02:00am 4.1 1.9 3.1 93 0.4 SSW 4 6 2 3 - - 0.0
28/01:50am 3.9 1.6 2.9 93 0.4 SSW 4 4 2 2 - - 0.0
28/01:40am 4.2 2.0 3.2 93 0.4 S 4 7 2 4 - - 0.0
28/01:30am 4.1 2.3 3.2 94 0.4 SSE 2 4 1 2 - - 0.0
28/01:20am 3.9 2.0 3.0 94 0.4 WSW 2 4 1 2 - - 0.0
28/01:10am 3.7 1.4 2.9 94 0.3 WSW 4 4 2 2 - - 0.0
28/01:00am 3.7 1.1 3.0 95 0.3 SSE 6 6 3 3 - - 0.0
28/12:50am 3.6 1.4 3.1 97 0.2 SSE 4 6 2 3 - - 0.0
28/12:40am 3.1 0.8 2.5 96 0.3 NNW 4 6 2 3 - - 0.0
28/12:30am 3.2 0.9 2.6 96 0.3 S 4 7 2 4 - - 0.0
28/12:20am 3.3 0.4 2.7 96 0.3 SSE 7 9 4 5 - - 0.0
28/12:10am 3.3 0.4 2.8 97 0.2 SE 7 9 4 5 - - 0.0
28/12:00am 3.2 0.5 2.5 95 0.3 SE 6 7 3 4 - - 0.0
 
Date/Time
EST
Temp
°C
App
Temp
°C
Dew
Point
°C
Rel
Hum
%
Delta-T
°C
Wind Press
QNH
hPa
Press
MSL
hPa
Rain since
9am
mm
Dir  Spd
km/h
Gust
km/h
Spd
kts
Gust
kts
27/11:50pm 3.5 1.2 2.9 96 0.3 N 4 6 2 3 - - 0.0
27/11:40pm 3.4 0.7 2.8 96 0.3 NNW 6 7 3 4 - - 0.0
27/11:30pm 2.9 -0.1 2.0 94 0.4 NW 7 9 4 5 - - 0.0
27/11:20pm 3.6 1.3 2.7 94 0.4 WSW 4 7 2 4 - - 0.0
27/11:10pm 3.6 0.4 2.9 95 0.3 S 9 11 5 6 - - 0.0
27/11:00pm 3.2 -0.1 2.3 94 0.4 SSE 9 9 5 5 - - 0.0
27/10:50pm 4.0 1.1 2.8 92 0.5 S 7 9 4 5 - - 0.0
27/10:40pm 4.4 1.7 2.9 90 0.7 SE 6 6 3 3 - - 0.0
27/10:30pm 4.8 2.5 3.0 88 0.8 E 4 4 2 2 - - 0.0
27/10:20pm 4.5 2.7 3.3 92 0.5 E 2 4 1 2 - - 0.0
27/10:10pm 4.6 2.4 3.2 91 0.6 E 4 6 2 3 - - 0.0
27/10:00pm 4.3 1.5 2.9 91 0.6 SE 7 7 4 4 - - 0.0
27/09:50pm 5.1 3.0 3.9 92 0.5 N 4 6 2 3 - - 0.0
27/09:40pm 4.8 2.6 3.6 92 0.5 NNW 4 4 2 2 - - 0.0
27/09:30pm 5.0 2.8 3.4 89 0.7 S 4 6 2 3 - - 0.0
27/09:20pm 5.0 3.2 3.6 91 0.6 N 2 4 1 2 - - 0.0
27/09:10pm 4.9 3.1 3.5 91 0.6 WSW 2 4 1 2 - - 0.0
27/09:00pm 5.5 3.7 3.6 87 0.9 SSW 2 4 1 2 - - 0.0
27/08:50pm 5.8 4.1 4.0 88 0.8 SW 2 2 1 1 - - 0.0
27/08:40pm 6.1 3.9 3.6 84 1.1 S 4 6 2 3 - - 0.0
27/08:30pm 6.0 3.9 3.7 85 1.0 SSE 4 6 2 3 - - 0.0
27/08:20pm 5.9 3.4 3.8 86 0.9 SSE 6 6 3 3 - - 0.0
27/08:10pm 5.9 3.4 3.8 86 0.9 SSE 6 6 3 3 - - 0.0
27/08:00pm 6.2 3.7 4.0 86 1.0 S 6 7 3 4 - - 0.0
27/07:50pm 6.5 4.1 4.3 86 1.0 S 6 6 3 3 - - 0.0
27/07:40pm 6.8 4.9 5.0 88 0.8 ESE 4 6 2 3 - - 0.0
27/07:30pm 7.3 5.4 5.0 85 1.1 NE 4 4 2 2 - - 0.0
27/07:20pm 7.3 5.5 5.3 87 0.9 N 4 6 2 3 - - 0.0
27/07:10pm 7.1 4.9 5.4 89 0.8 N 6 7 3 4 - - 0.0
27/07:00pm 7.4 5.2 5.4 87 0.9 N 6 6 3 3 - - 0.0
27/06:50pm 8.1 6.0 5.6 84 1.2 NE 6 6 3 3 - - 0.0
27/06:40pm 8.0 6.3 5.7 85 1.1 NE 4 6 2 3 - - 0.0
27/06:30pm 8.0 6.2 5.6 85 1.1 NNE 4 6 2 3 - - 0.0
27/06:20pm 8.2 5.9 5.7 84 1.2 ENE 7 9 4 5 - - 0.0
27/06:10pm 8.4 6.1 5.7 83 1.3 E 7 9 4 5 - - 0.0
27/06:00pm 8.6 5.9 5.7 82 1.4 E 9 11 5 6 - - 0.0
27/05:50pm 9.0 6.7 5.6 79 1.6 ENE 7 9 4 5 - - 0.0
27/05:40pm 9.0 6.6 5.4 78 1.7 ENE 7 9 4 5 - - 0.0
27/05:30pm 9.0 5.9 5.7 80 1.6 ENE 11 11 6 6 - - 0.0
27/05:20pm 9.5 6.8 5.4 75 2.0 E 9 11 5 6 - - 0.0
27/05:10pm 9.8 7.5 5.0 72 2.3 E 6 7 3 4 - - 0.0
27/05:00pm 9.9 7.6 4.8 70 2.4 ESE 6 6 3 3 - - 0.0
27/04:50pm 10.3 7.9 4.4 67 2.8 SSE 6 7 3 4 - - 0.0
27/04:40pm 10.5 8.0 4.7 67 2.8 S 7 7 4 4 - - 0.0
27/04:30pm 10.8 7.8 4.3 64 3.1 WSW 9 11 5 6 - - 0.0
27/04:20pm 11.0 8.1 4.6 64 3.1 WSW 9 11 5 6 - - 0.0
27/04:10pm 11.4 8.9 5.0 65 3.1 WSW 7 11 4 6 - - 0.0
27/04:00pm 11.6 9.0 4.2 60 3.5 WSW 7 11 4 6 - - 0.0
27/03:50pm 11.5 8.2 4.7 63 3.3 WSW 11 15 6 8 - - 0.0
27/03:40pm 12.1 9.2 4.8 61 3.5 WSW 9 11 5 6 - - 0.0
27/03:30pm 12.4 9.5 4.5 58 3.8 WSW 9 13 5 7 - - 0.0
27/03:20pm 11.9 9.9 4.2 59 3.7 W 4 7 2 4 - - 0.0
27/03:10pm 11.9 10.0 4.9 62 3.4 SSW 4 6 2 3 - - 0.0
27/03:00pm 11.7 9.9 5.4 65 3.1 ENE 4 6 2 3 - - 0.0
27/02:50pm 11.7 9.2 4.8 62 3.3 E 7 11 4 6 - - 0.0
27/02:40pm 11.7 9.5 5.3 65 3.1 E 6 9 3 5 - - 0.0
27/02:30pm 12.3 10.0 5.5 63 3.4 E 7 11 4 6 - - 0.0
27/02:20pm 12.7 10.4 5.5 61 3.6 E 7 11 4 6 - - 0.0
27/02:10pm 13.7 12.0 5.7 58 4.0 NE 4 6 2 3 - - 0.0
27/02:00pm 12.7 10.3 5.1 60 3.7 N 7 11 4 6 - - 0.0
27/01:50pm 11.9 8.6 4.5 60 3.6 NNE 11 13 6 7 - - 0.0
27/01:40pm 11.4 9.1 5.6 67 2.9 NE 7 11 4 6 - - 0.0
27/01:30pm 11.6 8.1 5.5 66 3.0 NE 13 15 7 8 - - 0.0
27/01:20pm 11.8 9.0 5.3 64 3.2 ENE 9 13 5 7 - - 0.0
27/01:10pm 12.3 9.4 4.9 60 3.6 ENE 9 13 5 7 - - 0.0
27/01:00pm 11.6 8.8 5.2 65 3.1 NE 9 11 5 6 - - 0.0
27/12:50pm 11.2 8.0 5.1 66 3.0 NE 11 15 6 8 - - 0.0
27/12:40pm 11.0 7.4 4.8 65 3.0 NE 13 15 7 8 - - 0.0
27/12:30pm 11.7 8.9 5.2 64 3.2 ENE 9 15 5 8 - - 0.0
27/12:20pm 12.2 9.1 5.5 63 3.3 ENE 11 17 6 9 - - 0.0
27/12:10pm 11.9 9.5 5.2 63 3.3 ENE 7 11 4 6 - - 0.0
27/12:00pm 12.0 9.3 5.4 64 3.2 E 9 11 5 6 - - 0.0
27/11:50am 12.0 9.6 5.4 64 3.2 ENE 7 11 4 6 - - 0.0
27/11:40am 11.8 9.5 4.6 61 3.5 N 6 11 3 6 - - 0.0
27/11:30am 12.0 10.1 4.8 61 3.5 N 4 7 2 4 - - 0.0
27/11:20am 11.2 9.2 4.2 62 3.3 NE 4 6 2 3 - - 0.0
27/11:10am 10.7 8.9 5.2 69 2.7 ESE 4 7 2 4 - - 0.0
27/11:00am 10.7 8.8 4.9 67 2.8 S 4 4 2 2 - - 0.0
27/10:50am 10.4 8.5 4.9 69 2.6 SE 4 6 2 3 - - 0.0
27/10:40am 11.2 9.7 5.0 65 3.0 N 2 4 1 2 - - 0.0
27/10:30am 11.1 9.7 5.4 68 2.8 WNW 2 6 1 3 - - 0.0
27/10:20am 9.4 7.6 3.7 67 2.6 SSW 2 4 1 2 - - 0.0
27/10:10am 8.1 6.0 3.8 74 2.0 S 4 6 2 3 - - 0.0
27/10:00am 7.5 5.3 3.5 76 1.8 SSE 4 4 2 2 - - 0.0
27/09:50am 7.2 5.4 3.3 76 1.8 SE 2 4 1 2 - - 0.0
27/09:40am 6.9 5.1 3.3 78 1.6 S 2 4 1 2 - - 0.0
27/09:30am 6.5 4.3 3.2 79 1.5 SSE 4 4 2 2 - - 0.0
27/09:20am 6.5 4.3 3.1 79 1.5 SE 4 4 2 2 - - 0.0
27/09:10am 5.9 4.0 2.8 80 1.4 S 2 4 1 2 - - 0.0
27/09:00am 4.3 2.0 2.8 90 0.7 SE 4 4 2 2 - - 0.0
27/08:50am 4.4 2.1 2.7 89 0.7 ESE 4 6 2 3 - - 0.0
27/08:40am 5.1 3.2 2.9 86 1.0 ESE 2 4 1 2 - - 0.0
27/08:30am 4.8 2.9 2.9 87 0.8 SSW 2 2 1 1 - - 0.0
27/08:20am 3.6 1.6 2.4 92 0.5 WNW 2 4 1 2 - - 0.0
27/08:10am 2.8 0.7 1.8 93 0.4 NW 2 4 1 2 - - 0.0
27/08:00am 2.6 0.5 1.5 92 0.5 N 2 4 1 2 - - 0.0
27/07:50am 2.5 0.4 1.5 93 0.4 NW 2 4 1 2 - - 0.0
27/07:40am 2.4 0.3 1.4 93 0.4 W 2 4 1 2 - - 0.0
27/07:30am 2.4 -0.5 1.3 92 0.5 S 6 6 3 3 - - 0.0
27/07:20am 2.4 -0.5 1.3 92 0.5 S 6 6 3 3 - - 0.0
27/07:10am 2.3 -0.6 1.4 94 0.4 S 6 6 3 3 - - 0.0
27/07:00am 2.3 -0.6 1.3 93 0.4 S 6 6 3 3 - - 0.0
27/06:50am 2.3 -0.6 1.2 92 0.4 SSE 6 7 3 4 - - 0.0
27/06:40am 2.7 -0.2 1.4 91 0.5 S 6 7 3 4 - - 0.0
27/06:30am 2.9 0.0 1.5 90 0.6 S 6 6 3 3 - - 0.0
27/06:20am 3.3 0.8 1.6 89 0.7 SSE 4 4 2 2 - - 0.0
27/06:10am 3.4 0.9 1.7 89 0.7 S 4 4 2 2 - - 0.0
27/06:00am 3.5 1.0 1.7 88 0.8 S 4 4 2 2 - - 0.0
27/05:50am 3.4 1.0 2.0 90 0.6 SSE 4 6 2 3 - - 0.0
27/05:40am 3.3 0.8 1.8 90 0.6 SE 4 6 2 3 - - 0.0
27/05:30am 3.9 1.5 2.1 88 0.8 - 4 6 2 3 - - 0.0
27/05:20am 4.0 1.6 2.3 89 0.7 E 4 4 2 2 - - 0.0
27/05:10am 4.2 1.8 2.4 88 0.8 ESE 4 6 2 3 - - 0.0
27/05:00am 4.4 2.1 2.5 87 0.8 SE 4 4 2 2 - - 0.0
27/04:50am 4.7 2.5 3.2 90 0.7 SE 4 4 2 2 - - 0.0
27/04:40am 4.9 2.6 2.9 87 0.9 E 4 6 2 3 - - 0.0
27/04:30am 5.2 3.3 2.6 83 1.1 ENE 2 4 1 2 - - 0.0
27/04:20am 5.4 3.4 2.4 81 1.3 W 2 4 1 2 - - 0.0
27/04:10am 5.6 3.6 2.4 80 1.4 NNW 2 4 1 2 - - 0.0
27/04:00am 5.7 3.3 2.4 79 1.4 N 4 6 2 3 - - 0.0
27/03:50am 5.8 3.5 2.5 79 1.4 NNW 4 6 2 3 - - 0.0
27/03:40am 6.0 3.3 2.8 80 1.4 N 6 7 3 4 - - 0.0
27/03:30am 6.1 3.8 2.5 78 1.6 NW 4 7 2 4 - - 0.0
27/03:20am 6.1 4.2 2.9 80 1.4 N 2 4 1 2 - - 0.0
27/03:10am 6.1 3.8 2.8 79 1.5 WNW 4 4 2 2 - - 0.0
27/03:00am 6.2 3.9 3.0 80 1.4 NW 4 6 2 3 - - 0.0
27/02:50am 6.1 3.9 3.5 83 1.2 ESE 4 6 2 3 - - 0.0
27/02:40am 6.1 4.0 3.7 84 1.1 ESE 4 6 2 3 - - 0.0
27/02:30am 6.6 4.5 4.0 83 1.2 ENE 4 7 2 4 - - 0.0
27/02:20am 7.1 4.4 2.5 72 2.0 NNW 6 6 3 3 - - 0.0
27/02:10am 6.9 4.6 2.8 75 1.8 N 4 6 2 3 - - 0.0
27/02:00am 7.0 4.4 3.0 76 1.8 N 6 7 3 4 - - 0.0
27/01:50am 7.0 4.2 2.3 72 2.1 N 6 9 3 5 - - 0.0
27/01:40am 6.9 4.3 3.3 78 1.6 N 6 9 3 5 - - 0.0
27/01:30am 6.8 4.0 2.9 76 1.7 NNW 7 11 4 6 - - 0.0
27/01:20am 6.7 3.9 3.0 77 1.7 N 7 9 4 5 - - 0.0
27/01:10am 6.7 4.2 3.5 80 1.4 N 6 9 3 5 - - 0.0
27/01:00am 6.7 3.9 3.3 79 1.5 NW 7 7 4 4 - - 0.0
27/12:50am 6.8 4.3 3.5 79 1.5 NNW 6 7 3 4 - - 0.0
27/12:40am 6.8 4.1 3.5 79 1.5 NNW 7 9 4 5 - - 0.0
27/12:30am 7.0 4.4 3.4 78 1.6 NNW 6 9 3 5 - - 0.0
27/12:20am 7.0 3.5 3.7 79 1.5 N 11 15 6 8 - - 0.0
27/12:10am 6.8 3.8 4.0 82 1.3 N 9 11 5 6 - - 0.0
27/12:00am 6.9 4.3 4.1 82 1.3 NNE 7 9 4 5 - - 0.0
 
Date/Time
EST
Temp
°C
App
Temp
°C
Dew
Point
°C
Rel
Hum
%
Delta-T
°C
Wind Press
QNH
hPa
Press
MSL
hPa
Rain since
9am
mm
Dir  Spd
km/h
Gust
km/h
Spd
kts
Gust
kts
26/11:50pm 6.8 4.7 3.9 82 1.3 NE 4 6 2 3 - - 0.0
26/11:40pm 6.8 4.7 4.0 82 1.3 NNW 4 6 2 3 - - 0.0
26/11:30pm 6.7 4.2 3.9 82 1.3 NW 6 7 3 4 - - 0.0
26/11:20pm 6.6 3.5 3.6 81 1.4 NW 9 9 5 5 - - 0.0
26/11:10pm 6.8 3.7 3.7 80 1.4 NNW 9 9 5 5 - - 0.0
26/11:00pm 7.0 4.3 3.8 80 1.5 N 7 7 4 4 - - 0.0
26/10:50pm 7.2 4.6 4.0 80 1.5 NNE 7 7 4 4 - - 0.0
26/10:40pm 7.3 4.6 3.7 78 1.6 N 7 7 4 4 - - 0.0
26/10:30pm 7.2 4.5 3.7 78 1.6 N 7 7 4 4 - - 0.0
26/10:20pm 7.4 4.7 3.7 77 1.7 N 7 9 4 5 - - 0.0
26/10:10pm 7.5 4.8 3.6 76 1.8 N 7 7 4 4 - - 0.0
26/10:00pm 7.5 5.0 3.5 76 1.8 N 6 7 3 4 - - 0.0
26/09:50pm 7.4 5.2 3.3 75 1.9 N 4 4 2 2 - - 0.0
26/09:40pm 7.3 5.1 3.2 75 1.8 NNW 4 6 2 3 - - 0.0
26/09:30pm 7.1 4.9 3.2 76 1.8 NNW 4 6 2 3 - - 0.0
26/09:20pm 7.2 5.0 3.6 78 1.6 ENE 4 6 2 3 - - 0.0
26/09:10pm 7.1 4.5 3.3 77 1.7 ESE 6 6 3 3 - - 0.0
26/09:00pm 7.1 4.5 3.2 76 1.8 E 6 7 3 4 - - 0.0
26/08:50pm 6.8 5.1 3.9 82 1.3 ENE 2 4 1 2 - - 0.0
26/08:40pm 7.0 5.2 3.4 78 1.6 N 2 6 1 3 - - 0.0
26/08:30pm 6.8 4.6 3.2 78 1.6 ENE 4 6 2 3 - - 0.0
26/08:20pm 6.8 4.6 3.6 80 1.4 W 4 6 2 3 - - 0.0
26/08:10pm 6.9 4.7 3.6 79 1.5 WNW 4 6 2 3 - - 0.0
26/08:00pm 7.2 5.4 3.7 78 1.6 S 2 4 1 2 - - 0.0
26/07:50pm 7.8 5.3 3.5 74 2.0 SSE 6 7 3 4 - - 0.0
26/07:40pm 7.7 5.5 3.6 75 1.9 SSE 4 6 2 3 - - 0.0
26/07:30pm 7.6 5.1 3.6 76 1.8 SE 6 6 3 3 - - 0.0
26/07:20pm 7.5 5.0 3.6 76 1.8 SSE 6 6 3 3 - - 0.0
26/07:10pm 7.5 5.0 3.6 76 1.8 SSE 6 7 3 4 - - 0.0
26/07:00pm 7.4 4.8 3.3 75 1.9 S 6 6 3 3 - - 0.0
26/06:50pm 7.2 4.6 3.2 76 1.8 S 6 7 3 4 - - 0.0
26/06:40pm 7.2 4.6 3.4 77 1.7 SSE 6 7 3 4 - - 0.0
26/06:30pm 7.8 5.6 3.5 74 2.0 SSE 4 6 2 3 - - 0.0
26/06:20pm 8.0 5.4 3.1 71 2.2 S 6 7 3 4 - - 0.0
26/06:10pm 8.0 5.2 3.1 71 2.2 SSW 7 7 4 4 - - 0.0
26/06:00pm 8.2 5.6 3.2 71 2.3 S 6 6 3 3 - - 0.0
26/05:50pm 8.4 5.8 3.3 70 2.3 S 6 7 3 4 - - 0.0
26/05:40pm 8.4 6.1 2.8 68 2.5 S 4 7 2 4 - - 0.0
26/05:30pm 8.1 6.2 3.1 71 2.3 SSE 2 4 1 2 - - 0.0
26/05:20pm 8.1 5.9 3.2 71 2.2 ESE 4 6 2 3 - - 0.0
26/05:10pm 8.1 5.3 3.2 71 2.2 ESE 7 11 4 6 - - 0.0
26/05:00pm 8.4 4.5 3.5 71 2.2 ESE 13 17 7 9 - - 0.0
26/04:50pm 8.5 3.5 3.8 72 2.2 ESE 19 20 10 11 - - 0.0
26/04:40pm 8.6 3.7 4.0 73 2.1 ESE 19 20 10 11 - - 0.0
26/04:30pm 9.0 4.0 4.4 73 2.2 ESE 20 24 11 13 - - 0.0
26/04:20pm 9.5 4.4 4.2 69 2.5 ESE 20 22 11 12 - - 0.0
26/04:10pm 9.8 5.4 4.9 71 2.3 SE 17 22 9 12 - - 0.0
26/04:00pm 10.0 7.4 4.3 67 2.7 SE 7 11 4 6 - - 0.0
26/03:50pm 10.1 6.8 4.5 68 2.7 SE 11 15 6 8 - - 0.0
26/03:40pm 10.2 6.9 4.4 67 2.8 SE 11 15 6 8 - - 0.0
26/03:30pm 10.3 6.2 4.3 66 2.8 SE 15 17 8 9 - - 0.0
26/03:20pm 10.3 6.3 4.7 68 2.7 SE 15 17 8 9 - - 0.0
26/03:10pm 10.1 6.2 5.2 71 2.4 SE 15 19 8 10 - - 0.0
26/03:00pm 10.0 5.9 6.0 76 2.0 SE 17 19 9 10 - - 0.0
26/02:50pm 10.5 6.4 6.2 75 2.1 SE 17 20 9 11 - - 0.0
26/02:40pm 10.4 7.1 6.3 76 2.0 SE 13 15 7 8 - - 0.0
26/02:30pm 10.4 7.0 6.0 74 2.2 ESE 13 19 7 10 - - 0.0
26/02:20pm 10.4 7.4 5.9 73 2.2 SE 11 15 6 8 - - 0.0
26/02:10pm 10.2 6.6 4.8 69 2.6 ESE 13 20 7 11 - - 0.0
26/02:00pm 10.4 6.5 5.4 71 2.4 SE 15 19 8 10 - - 0.0
26/01:50pm 10.3 6.3 5.1 70 2.5 SE 15 22 8 12 - - 0.0
26/01:40pm 10.2 5.6 5.5 72 2.3 SE 19 24 10 13 - - 0.0
26/01:30pm 10.4 6.2 5.6 72 2.3 SE 17 22 9 12 - - 0.0
26/01:20pm 10.4 6.1 5.3 70 2.5 SE 17 20 9 11 - - 0.0
26/01:10pm 10.5 6.8 6.5 76 2.0 SE 15 20 8 11 - - 0.0
26/01:00pm 10.4 5.8 5.6 72 2.3 SE 19 22 10 12 - - 0.0
26/12:50pm 10.6 6.4 5.5 71 2.5 SE 17 22 9 12 - - 0.0
26/12:40pm 10.7 6.9 5.7 71 2.4 SE 15 19 8 10 - - 0.0
26/12:30pm 10.7 6.1 5.8 72 2.4 SE 19 24 10 13 - - 0.0
26/12:20pm 10.6 6.5 6.0 73 2.3 SSE 17 22 9 12 - - 0.0
26/12:10pm 10.6 7.1 5.6 71 2.4 S 13 19 7 10 - - 0.0
26/12:00pm 10.3 7.0 6.5 77 1.9 S 13 19 7 10 - - 0.0
26/11:50am 10.1 6.4 6.4 78 1.8 S 15 19 8 10 - - 0.0
26/11:40am 10.0 6.4 6.6 79 1.7 S 15 19 8 10 - - 0.0
26/11:30am 10.0 5.9 6.3 78 1.8 S 17 19 9 10 - - 0.0
26/11:20am 10.0 5.9 6.4 78 1.8 S 17 19 9 10 - - 0.0
26/11:10am 10.0 6.7 6.6 79 1.7 S 13 17 7 9 - - 0.0
26/11:00am 9.8 6.0 6.0 77 1.9 S 15 17 8 9 - - 0.0
26/10:50am 9.7 6.0 6.1 78 1.8 S 15 19 8 10 - - 0.0
26/10:40am 9.8 6.0 6.0 77 1.9 S 15 17 8 9 - - 0.0
26/10:30am 9.8 6.0 5.9 77 1.9 S 15 19 8 10 - - 0.0
26/10:20am 9.5 5.7 5.8 78 1.8 S 15 17 8 9 - - 0.0
26/10:10am 9.2 5.0 5.7 79 1.7 S 17 17 9 9 - - 0.0
26/10:00am 9.3 5.1 5.7 78 1.7 S 17 20 9 11 - - 0.0
26/09:50am 9.0 4.8 5.6 79 1.6 S 17 19 9 10 - - 0.0
26/09:40am 8.8 4.5 5.4 79 1.6 S 17 17 9 9 - - 0.0
26/09:30am 8.6 4.3 5.3 80 1.6 S 17 17 9 9 - - 0.0
26/09:20am 8.3 4.3 5.0 80 1.6 S 15 17 8 9 - - 0.0
26/09:10am 8.0 4.4 5.0 81 1.4 S 13 15 7 8 - - 0.0
26/09:00am 7.8 3.4 4.7 81 1.5 S 17 19 9 10 - - 0.0
26/08:50am 7.6 2.8 4.6 81 1.4 S 19 20 10 11 - - 0.0
26/08:40am 7.5 2.7 4.6 82 1.4 S 19 20 10 11 - - 0.0
26/08:30am 7.3 2.8 4.4 82 1.3 S 17 20 9 11 - - 0.0
26/08:20am 7.1 2.6 4.4 83 1.2 S 17 19 9 10 - - 0.0
26/08:10am 7.0 2.9 4.3 83 1.2 S 15 19 8 10 - - 0.0
26/08:00am 6.7 2.2 4.1 83 1.2 S 17 20 9 11 - - 0.0
26/07:50am 6.6 1.7 4.1 84 1.1 S 19 22 10 12 - - 0.0
26/07:40am 6.6 2.1 4.0 83 1.2 S 17 19 9 10 - - 0.0
26/07:30am 6.4 1.9 4.0 85 1.1 S 17 19 9 10 - - 0.0
26/07:20am 6.3 1.4 3.9 85 1.1 S 19 20 10 11 - - 0.0
26/07:10am 6.2 1.1 4.0 86 1.0 S 20 22 11 12 - - 0.0
26/07:00am 6.3 0.8 3.9 85 1.1 S 22 26 12 14 - - 0.0
26/06:50am 6.1 1.2 4.0 86 1.0 S 19 22 10 12 - - 0.0
26/06:40am 6.2 1.3 4.0 86 1.0 S 19 20 10 11 - - 0.0
26/06:30am 6.2 1.7 4.1 86 1.0 S 17 19 9 10 - - 0.0
26/06:20am 6.1 2.3 4.0 86 1.0 S 13 15 7 8 - - 0.0
26/06:10am 5.9 2.1 3.9 87 0.9 S 13 17 7 9 - - 0.0
26/06:00am 5.8 1.6 3.8 87 0.9 S 15 17 8 9 - - 0.0
26/05:50am 5.8 1.6 3.7 86 0.9 S 15 17 8 9 - - 0.0
26/05:40am 5.9 0.9 3.7 86 1.0 S 19 20 10 11 - - 0.0
26/05:30am 5.7 1.1 3.7 87 0.9 SSE 17 19 9 10 - - 0.0
26/05:20am 5.6 1.4 3.7 87 0.9 SSE 15 15 8 8 - - 0.0
26/05:10am 5.7 1.9 3.7 87 0.9 S 13 15 7 8 - - 0.0
26/05:00am 5.6 1.4 3.7 87 0.9 S 15 17 8 9 - - 0.0
26/04:50am 5.6 1.0 3.6 87 0.9 S 17 20 9 11 - - 0.0
26/04:40am 5.5 0.5 3.6 87 0.9 SSE 19 20 10 11 - - 0.0
26/04:30am 5.6 1.0 3.6 87 0.9 SSE 17 19 9 10 - - 0.0
26/04:20am 5.6 0.6 3.5 86 0.9 SSE 19 19 10 10 - - 0.0
26/04:10am 5.4 0.3 3.3 86 0.9 S 19 20 10 11 - - 0.0
26/04:00am 5.2 0.9 3.3 87 0.8 SSE 15 19 8 10 - - 0.0
26/03:50am 5.3 0.6 3.1 86 1.0 SSE 17 19 9 10 - - 0.0
26/03:40am 5.2 0.1 3.1 86 0.9 SSE 19 20 10 11 - - 0.0
26/03:30am 5.1 -0.2 3.2 87 0.8 SSE 20 26 11 14 - - 0.0
26/03:20am 5.3 -0.7 3.2 86 0.9 SSE 24 26 13 14 - - 0.0
26/03:10am 5.2 -0.1 3.2 87 0.9 SSE 20 22 11 12 - - 0.0
26/03:00am 5.3 -0.4 3.1 86 1.0 S 22 28 12 15 - - 0.0
26/02:50am 5.3 0.0 3.1 86 1.0 SSE 20 24 11 13 - - 0.0
26/02:40am 5.2 -0.1 3.0 86 1.0 SSE 20 22 11 12 - - 0.0
26/02:30am 5.2 -0.5 3.0 86 1.0 S 22 26 12 14 - - 0.0
26/02:20am 5.2 -0.5 2.9 85 1.0 S 22 28 12 15 - - 0.0
26/02:10am 5.1 -0.2 3.0 86 0.9 S 20 24 11 13 - - 0.0
26/02:00am 5.1 0.4 2.9 86 1.0 S 17 22 9 12 - - 0.0
26/01:50am 5.3 0.2 3.0 85 1.0 S 19 20 10 11 - - 0.0
26/01:40am 5.5 0.2 2.9 83 1.1 S 20 24 11 13 - - 0.0
26/01:30am 5.5 0.2 2.8 83 1.2 S 20 26 11 14 - - 0.0
26/01:20am 5.4 0.0 2.7 83 1.2 S 20 24 11 13 - - 0.0
26/01:10am 5.4 -0.3 2.6 82 1.2 S 22 24 12 13 - - 0.0
26/01:00am 5.3 0.1 2.6 83 1.2 S 19 22 10 12 - - 0.0
26/12:50am 5.2 -0.2 2.5 83 1.2 S 20 28 11 15 - - 0.0
26/12:40am 5.2 -0.2 2.7 84 1.1 S 20 26 11 14 - - 0.0
26/12:30am 5.2 0.1 2.8 84 1.1 S 19 26 10 14 - - 0.0
26/12:20am 5.1 -1.4 2.9 86 1.0 S 26 28 14 15 - - 0.0
26/12:10am 5.1 -1.3 3.1 87 0.9 S 26 30 14 16 - - 0.0
26/12:00am 4.9 -0.4 2.9 87 0.9 S 20 28 11 15 - - 0.0
 
Date/Time
EST
Temp
°C
App
Temp
°C
Dew
Point
°C
Rel
Hum
%
Delta-T
°C
Wind Press
QNH
hPa
Press
MSL
hPa
Rain since
9am
mm
Dir  Spd
km/h
Gust
km/h
Spd
kts
Gust
kts
25/11:50pm 4.9 -0.3 2.6 85 1.0 S 19 20 10 11 - - 0.0
25/11:40pm 5.1 -0.3 2.5 83 1.1 S 20 22 11 12 - - 0.0
25/11:30pm 5.1 -0.7 2.3 82 1.2 S 22 26 12 14 - - 0.0
25/11:20pm 5.0 -0.8 2.2 82 1.2 S 22 26 12 14 - - 0.0
25/11:10pm 4.8 -0.6 2.2 83 1.1 S 20 22 11 12 - - 0.0
25/11:00pm 4.9 -1.3 2.2 83 1.2 S 24 26 13 14 - - 0.0
25/10:50pm 5.0 -2.3 2.2 82 1.2 S 30 32 16 17 - - 0.0
25/10:40pm 5.0 -1.6 2.2 82 1.2 S 26 32 14 17 - - 0.0
25/10:30pm 5.0 -0.8 2.1 81 1.2 S 22 24 12 13 - - 0.0
25/10:20pm 5.2 -0.6 2.1 80 1.3 S 22 26 12 14 - - 0.0
25/10:10pm 5.3 -0.1 2.3 81 1.3 S 20 22 11 12 - - 0.0
25/10:00pm 5.6 -0.6 2.3 79 1.4 S 24 26 13 14 - - 0.0
25/09:50pm 5.6 -1.0 2.2 79 1.5 S 26 28 14 15 - - 0.0
25/09:40pm 5.4 -0.3 2.6 82 1.2 S 22 28 12 15 - - 0.0
25/09:30pm 5.6 -0.1 2.7 81 1.3 S 22 28 12 15 - - 0.0
25/09:20pm 5.7 -0.7 3.2 84 1.1 S 26 33 14 18 - - 0.0
25/09:10pm 5.6 -0.8 3.3 85 1.0 S 26 30 14 16 - - 0.0
25/09:00pm 5.5 -0.5 3.6 87 0.9 S 24 30 13 16 - - 0.0
25/08:50pm 5.5 -0.5 3.6 87 0.9 S 24 26 13 14 - - 0.0
25/08:40pm 5.7 -1.0 3.4 85 1.0 S 28 33 15 18 - - 0.0
25/08:30pm 5.7 -1.1 3.3 84 1.1 S 28 32 15 17 - - 0.0
25/08:20pm 5.6 -1.5 3.3 85 1.0 S 30 35 16 19 - - 0.0
25/08:10pm 5.6 -1.2 3.3 85 1.0 S 28 32 15 17 - - 0.0
25/08:00pm 5.7 -1.5 3.2 84 1.1 S 30 33 16 18 - - 0.0
25/07:50pm 5.7 -0.7 3.1 83 1.2 S 26 33 14 18 - - 0.0
25/07:40pm 5.6 -0.4 3.2 84 1.1 S 24 26 13 14 - - 0.0
25/07:30pm 5.6 -0.8 3.1 84 1.1 S 26 30 14 16 - - 0.0
25/07:20pm 5.7 -1.5 3.1 83 1.2 S 30 33 16 18 - - 0.0
25/07:10pm 5.9 -1.6 3.3 83 1.2 S 32 35 17 19 - - 0.0
25/07:00pm 6.2 -0.8 4.2 87 0.9 S 30 35 16 19 - - 0.0
25/06:50pm 6.2 0.1 4.7 90 0.7 S 26 28 14 15 - - 0.0
25/06:40pm 6.2 -0.7 4.6 89 0.7 S 30 33 16 18 - - 0.0
25/06:30pm 6.3 -0.2 4.8 90 0.7 S 28 32 15 17 - - 0.0
25/06:20pm 6.4 0.3 4.8 89 0.7 S 26 30 14 16 - - 0.0
25/06:10pm 6.3 0.2 4.8 90 0.7 S 26 30 14 16 - - 0.0
25/06:00pm 6.4 -0.1 4.8 89 0.7 S 28 32 15 17 - - 0.0
25/05:50pm 6.3 -0.1 5.1 92 0.6 S 28 30 15 16 - - 0.0
25/05:40pm 6.5 0.5 5.1 91 0.7 S 26 30 14 16 - - 0.0
25/05:30pm 6.7 0.6 5.0 89 0.8 S 26 30 14 16 - - 0.0
25/05:20pm 6.6 0.9 4.9 89 0.8 S 24 28 13 15 - - 0.0
25/05:10pm 6.6 1.7 5.0 89 0.7 S 20 26 11 14 - - 0.0
25/05:00pm 6.6 0.9 5.0 89 0.7 S 24 26 13 14 - - 0.0
25/04:50pm 6.7 1.0 5.1 89 0.7 S 24 28 13 15 - - 0.0
25/04:40pm 6.7 1.0 5.1 89 0.7 S 24 26 13 14 - - 0.0
25/04:30pm 6.9 1.6 5.1 88 0.8 S 22 24 12 13 - - 0.0
25/04:20pm 7.1 1.8 5.2 88 0.9 S 22 26 12 14 - - 0.0
25/04:10pm 7.1 1.8 4.8 85 1.1 S 22 28 12 15 - - 0.0
25/04:00pm 7.2 1.5 5.0 86 1.0 S 24 24 13 13 - - 0.0
25/03:50pm 7.5 1.4 4.8 83 1.3 S 26 32 14 17 - - 0.0
25/03:40pm 7.6 0.7 4.7 82 1.4 S 30 33 16 18 - - 0.0
25/03:30pm 7.8 1.3 4.6 80 1.5 S 28 30 15 16 - - 0.0
25/03:20pm 7.6 1.1 4.7 82 1.4 S 28 30 15 16 - - 0.0

Other formats

Comma delimited format used in spreadsheet applications
http://www.bom.gov.au/fwo/IDN60801/IDN60801.99765.axf

JavaScript Object Notation format (JSON) in row-major order
http://www.bom.gov.au/fwo/IDN60801/IDN60801.99765.json

Data quality

Most of these data are generated automatically and are frequently updated. Quality checks on data are not normally performed. It is possible for incorrect values to appear. Refer to information at About Latest Weather Observations and please check the disclaimer before using these data.